createdAt,value
2023-03-13T00:02:34.275Z,99355.78
2023-03-13T00:07:35.516Z,99341.63
2023-03-13T00:12:36.761Z,99331.84
2023-03-13T00:17:37.928Z,99310.34
2023-03-13T00:22:39.164Z,99285.72
2023-03-13T00:27:40.310Z,99273.72
2023-03-13T00:32:41.859Z,99254.47
2023-03-13T00:37:43.106Z,99242.03
2023-03-13T00:42:44.241Z,99240.91
2023-03-13T00:47:45.420Z,99236.94
2023-03-13T00:52:46.591Z,99224.44
2023-03-13T00:57:47.718Z,99213.78
2023-03-13T01:02:48.970Z,99211.63
2023-03-13T01:07:50.988Z,99211.00
2023-03-13T01:12:52.178Z,99210.06
2023-03-13T01:17:53.344Z,99195.44
2023-03-13T01:22:54.513Z,99189.25
2023-03-13T01:27:55.730Z,99172.47
2023-03-13T01:32:56.995Z,99167.81
2023-03-13T01:37:58.187Z,99157.66
2023-03-13T01:42:59.472Z,99153.16
2023-03-13T01:48:00.655Z,99138.84
2023-03-13T01:53:02.861Z,99133.47
2023-03-13T01:58:04.058Z,99117.13
2023-03-13T02:03:05.241Z,99102.78
2023-03-13T02:08:06.456Z,99090.91
2023-03-13T02:13:07.899Z,99069.31
2023-03-13T02:18:09.117Z,99053.78
2023-03-13T02:23:10.331Z,99044.19
2023-03-13T02:28:11.501Z,99034.47
2023-03-13T02:33:12.659Z,99025.09
2023-03-13T02:38:13.917Z,99025.09
2023-03-13T02:43:15.122Z,99015.38
2023-03-13T02:48:16.333Z,99025.09
2023-03-13T02:53:17.504Z,99016.91
2023-03-13T02:58:18.659Z,99021.38
2023-03-13T03:03:19.914Z,99014.94
2023-03-13T03:08:21.298Z,99008.13
2023-03-13T03:13:22.572Z,98997.97
2023-03-13T03:18:23.925Z,98972.53
2023-03-13T03:23:25.130Z,98976.56
2023-03-13T03:28:26.280Z,98963.16
2023-03-13T03:33:27.540Z,98977.75
2023-03-13T03:38:28.730Z,98974.38
2023-03-13T03:43:29.947Z,98970.38
2023-03-13T03:48:31.276Z,98950.31
2023-03-13T03:53:32.461Z,98950.47
2023-03-13T03:58:33.625Z,98941.66
2023-03-13T04:03:34.880Z,98944.75
2023-03-13T04:08:36.092Z,98942.41
2023-03-13T04:13:37.280Z,98938.53
2023-03-13T04:18:38.478Z,98938.97
2023-03-13T04:23:39.687Z,98926.94
2023-03-13T04:28:40.824Z,98914.41
2023-03-13T04:33:42.075Z,98903.91
2023-03-13T04:38:43.319Z,98909.16
2023-03-13T04:43:44.544Z,98899.59
2023-03-13T04:48:46.779Z,98898.81
2023-03-13T04:53:47.932Z,98906.22
2023-03-13T04:58:49.132Z,98893.56
2023-03-13T05:03:50.348Z,98884.94
2023-03-13T05:08:51.482Z,98872.91
2023-03-13T05:13:52.736Z,98880.28
2023-03-13T05:18:53.881Z,98872.53
2023-03-13T05:23:55.183Z,98865.59
2023-03-13T05:28:56.398Z,98858.28
2023-03-13T05:33:57.598Z,98857.78
2023-03-13T05:38:58.758Z,98858.97
2023-03-13T05:44:00.003Z,98858.66
2023-03-13T05:49:01.245Z,98846.88
2023-03-13T05:54:02.417Z,98824.28
2023-03-13T05:59:03.614Z,98834.28
2023-03-13T06:04:04.857Z,98844.88
2023-03-13T06:09:06.078Z,98857.81
2023-03-13T06:14:07.268Z,98849.09
2023-03-13T06:19:08.513Z,98861.06
2023-03-13T06:24:09.642Z,98861.88
2023-03-13T06:29:10.867Z,98874.34
2023-03-13T06:34:12.026Z,98867.16
2023-03-13T06:39:13.293Z,98878.13
2023-03-13T06:44:14.490Z,98871.63
2023-03-13T06:49:15.700Z,98873.72
2023-03-13T06:54:16.930Z,98879.97
2023-03-13T06:59:18.122Z,98888.94
2023-03-13T07:04:20.039Z,98887.69
2023-03-13T07:09:21.360Z,98888.78
2023-03-13T07:14:22.558Z,98899.63
2023-03-13T07:19:23.749Z,98887.38
2023-03-13T07:24:25.009Z,98889.66
2023-03-13T07:29:26.338Z,98903.88
2023-03-13T07:34:27.547Z,98891.94
2023-03-13T07:39:28.742Z,98891.56
2023-03-13T07:44:29.966Z,98885.06
2023-03-13T07:49:31.145Z,98868.25
2023-03-13T07:54:32.366Z,98872.38
2023-03-13T07:59:33.611Z,98865.84
2023-03-13T08:04:34.785Z,98850.03
2023-03-13T08:09:35.984Z,98847.84
2023-03-13T08:14:37.192Z,98852.44
2023-03-13T08:19:38.936Z,98846.00
2023-03-13T08:24:40.135Z,98781.19
2023-03-13T08:29:41.362Z,98845.66
2023-03-13T08:34:42.600Z,98841.03
2023-03-13T08:39:45.486Z,98842.56
2023-03-13T08:44:46.689Z,98855.22
2023-03-13T08:49:47.893Z,98850.03
2023-03-13T08:54:49.113Z,98861.94
2023-03-13T08:59:51.398Z,98851.94
2023-03-13T09:04:52.597Z,98848.09
2023-03-13T09:09:53.846Z,98855.00
2023-03-13T09:14:55.007Z,98831.50
2023-03-13T09:20:00.545Z,98831.50
2023-03-13T09:25:02.294Z,98834.13
2023-03-13T09:30:03.503Z,98834.72
2023-03-13T09:35:07.701Z,98826.56
2023-03-13T09:40:08.964Z,98824.88
2023-03-13T09:45:10.184Z,98811.09
2023-03-13T09:50:11.400Z,98816.72
2023-03-13T09:55:12.543Z,98761.16
2023-03-13T10:00:14.534Z,98806.00
2023-03-13T10:05:15.746Z,98805.53
2023-03-13T10:10:18.026Z,98826.66
2023-03-13T10:15:19.194Z,98801.78
2023-03-13T10:20:20.425Z,98794.41
2023-03-13T10:25:21.646Z,98782.94
2023-03-13T10:30:23.092Z,98760.63
2023-03-13T10:35:24.300Z,98763.03
2023-03-13T10:40:25.491Z,98759.16
2023-03-13T10:45:26.763Z,98752.03
2023-03-13T10:50:28.013Z,98749.34
2023-03-13T10:55:29.205Z,98743.31
2023-03-13T11:00:30.433Z,98717.06
2023-03-13T11:05:31.718Z,98721.00
2023-03-13T11:10:37.009Z,98694.72
2023-03-13T11:15:38.174Z,98685.34
2023-03-13T11:20:39.367Z,98680.44
2023-03-13T11:25:40.635Z,98656.47
2023-03-13T11:30:41.843Z,98636.00
2023-03-13T11:35:43.073Z,98631.69
2023-03-13T11:40:44.265Z,98631.47
2023-03-13T11:45:45.527Z,98611.16
2023-03-13T11:50:46.917Z,98623.34
2023-03-13T11:55:48.151Z,98597.72
2023-03-13T12:00:49.466Z,98589.56
2023-03-13T12:05:51.651Z,98579.97
2023-03-13T12:10:52.850Z,98580.22
2023-03-13T12:15:54.060Z,98579.00
2023-03-13T12:20:55.944Z,98585.09
2023-03-13T12:25:57.132Z,98576.72
2023-03-13T12:30:58.473Z,98573.84
2023-03-13T12:35:59.774Z,98558.97
2023-03-13T12:41:01.014Z,98533.78
2023-03-13T12:46:02.386Z,98537.13
2023-03-13T12:51:03.646Z,98517.53
2023-03-13T12:56:04.835Z,98487.28
2023-03-13T13:01:06.029Z,98494.19
2023-03-13T13:06:07.249Z,98491.81
2023-03-13T13:11:08.492Z,98483.47
2023-03-13T13:16:09.739Z,98477.03
2023-03-13T13:21:11.014Z,98472.00
2023-03-13T13:26:12.255Z,98459.50
2023-03-13T13:31:13.696Z,98465.06
2023-03-13T13:36:15.741Z,98455.88
2023-03-13T13:41:17.071Z,98433.84
2023-03-13T13:46:18.379Z,98443.25
2023-03-13T13:51:20.300Z,98411.50
2023-03-13T13:56:21.575Z,98410.81
2023-03-13T14:01:22.845Z,98424.22
2023-03-13T14:06:24.135Z,98409.19
2023-03-13T14:11:25.362Z,98402.69
2023-03-13T14:16:26.658Z,98404.63
2023-03-13T14:21:28.271Z,98380.44
2023-03-13T14:26:30.320Z,98372.22
2023-03-13T14:31:31.622Z,98365.34
2023-03-13T14:36:32.852Z,98359.97
2023-03-13T14:41:34.141Z,98351.47
2023-03-13T14:46:35.485Z,98341.94
2023-03-13T14:51:37.915Z,98343.75
2023-03-13T14:56:42.119Z,98347.88
2023-03-13T15:01:43.339Z,98327.03
2023-03-13T15:06:44.582Z,98317.19
2023-03-13T15:11:45.826Z,98296.00
2023-03-13T15:16:47.134Z,98287.66
2023-03-13T15:21:48.476Z,98283.84
2023-03-13T15:26:49.766Z,98277.03
2023-03-13T15:31:51.049Z,98252.88
2023-03-13T15:36:52.391Z,98244.66
2023-03-13T15:41:54.111Z,98247.63
2023-03-13T15:46:55.467Z,98257.47
2023-03-13T15:51:57.909Z,98248.44
2023-03-13T15:56:59.244Z,98238.66
2023-03-13T16:02:00.433Z,98225.16
2023-03-13T16:07:01.680Z,98217.31
2023-03-13T16:12:02.914Z,98232.06
2023-03-13T16:17:04.084Z,98223.66
2023-03-13T16:22:05.274Z,98212.22
2023-03-13T16:27:06.462Z,98199.25
2023-03-13T16:32:07.750Z,98186.34
2023-03-13T16:37:09.084Z,98182.06
2023-03-13T16:42:10.498Z,98163.06
2023-03-13T16:47:11.866Z,98164.88
2023-03-13T16:52:13.703Z,98173.84
2023-03-13T16:57:14.873Z,98176.78
2023-03-13T17:02:16.111Z,98181.16
2023-03-13T17:07:17.357Z,98204.06
2023-03-13T17:12:18.887Z,98189.38
2023-03-13T17:17:20.175Z,98212.00
2023-03-13T17:22:21.422Z,98196.13
2023-03-13T17:27:22.593Z,98179.56
2023-03-13T17:32:25.163Z,98177.22
2023-03-13T17:37:26.880Z,98164.19
2023-03-13T17:42:33.674Z,98159.56
2023-03-13T17:47:34.800Z,98168.44
2023-03-13T17:52:36.009Z,98147.16
2023-03-13T17:57:37.452Z,98143.31
2023-03-13T18:02:39.024Z,98142.38
2023-03-13T18:07:44.091Z,98166.16
2023-03-13T18:12:45.306Z,98167.47
2023-03-13T18:17:46.520Z,98162.09
2023-03-13T18:22:47.915Z,98165.13
2023-03-13T18:27:49.169Z,98152.19
2023-03-13T18:32:50.412Z,98164.75
2023-03-13T18:37:51.628Z,98177.84
2023-03-13T18:42:52.774Z,98182.59
2023-03-13T18:47:53.969Z,98160.09
2023-03-13T18:52:55.416Z,98169.06
2023-03-13T18:57:56.799Z,98160.59
2023-03-13T19:02:58.044Z,98167.59
2023-03-13T19:07:59.313Z,98160.41
2023-03-13T19:13:00.613Z,98144.13
2023-03-13T19:18:03.338Z,98144.34
2023-03-13T19:23:04.894Z,98133.97
2023-03-13T19:28:06.074Z,98105.28
2023-03-13T19:33:07.201Z,98084.47
2023-03-13T19:38:08.336Z,98059.41
2023-03-13T19:43:09.602Z,98035.44
2023-03-13T19:48:10.929Z,98045.38
2023-03-13T19:53:12.096Z,98060.13
2023-03-13T19:58:13.242Z,98061.75
2023-03-13T20:03:14.471Z,98064.13
2023-03-13T20:08:15.685Z,98069.19
2023-03-13T20:13:16.894Z,98078.38
2023-03-13T20:18:18.153Z,98093.16
2023-03-13T20:23:19.321Z,98104.66
2023-03-13T20:28:20.478Z,98092.22
2023-03-13T20:33:21.802Z,98085.44
2023-03-13T20:38:23.034Z,98079.00
2023-03-13T20:43:24.259Z,98072.03
2023-03-13T20:48:26.142Z,98068.88
2023-03-13T20:53:27.317Z,98073.94
2023-03-13T20:58:28.530Z,98086.91
2023-03-13T21:03:32.113Z,98077.84
2023-03-13T21:08:33.390Z,98074.66
2023-03-13T21:13:34.630Z,98071.94
2023-03-13T21:18:35.804Z,98066.63
2023-03-13T21:23:37.136Z,98052.72
2023-03-13T21:28:38.315Z,98039.06
2023-03-13T21:33:39.552Z,98012.22
2023-03-13T21:38:40.736Z,98009.19
2023-03-13T21:43:41.885Z,98035.47
2023-03-13T21:48:43.126Z,98068.47
2023-03-13T21:53:44.423Z,98076.25
2023-03-13T21:58:45.763Z,98082.31
2023-03-13T22:03:47.067Z,98081.47
2023-03-13T22:08:48.313Z,98078.88
2023-03-13T22:13:49.505Z,98107.66
2023-03-13T22:18:50.700Z,98106.34
2023-03-13T22:23:51.826Z,98114.56
2023-03-13T22:28:52.957Z,98108.16
2023-03-13T22:33:54.095Z,98095.41
2023-03-13T22:38:55.243Z,98074.69
2023-03-13T22:43:56.423Z,98066.06
2023-03-13T22:48:57.614Z,98063.47
2023-03-13T22:53:58.910Z,98060.16
2023-03-13T22:59:00.156Z,98054.25
2023-03-13T23:04:01.440Z,98030.47
2023-03-13T23:09:03.273Z,98054.31
2023-03-13T23:14:04.456Z,98040.84
2023-03-13T23:19:07.241Z,98053.94
2023-03-13T23:24:08.415Z,98063.09
2023-03-13T23:29:09.543Z,98053.91
2023-03-13T23:34:10.752Z,98018.81
2023-03-13T23:39:11.894Z,98002.88
2023-03-13T23:44:13.070Z,98018.69
2023-03-13T23:49:14.322Z,98024.56
2023-03-13T23:54:15.493Z,98005.50
2023-03-13T23:59:16.744Z,97987.41
